createdAt,value
2017-07-27T00:01:07.798Z,21.20
2017-07-27T00:03:36.039Z,21.20
2017-07-27T00:06:04.309Z,21.30
2017-07-27T00:08:32.623Z,21.20
2017-07-27T00:11:00.860Z,21.30
2017-07-27T00:13:29.139Z,21.30
2017-07-27T00:15:57.439Z,21.20
2017-07-27T00:18:25.729Z,21.20
2017-07-27T00:20:53.965Z,21.10
2017-07-27T00:23:22.260Z,21.00
2017-07-27T00:25:50.504Z,21.00
2017-07-27T00:28:19.143Z,20.90
2017-07-27T00:30:47.739Z,20.90
2017-07-27T00:33:15.987Z,20.80
2017-07-27T00:35:44.239Z,20.80
2017-07-27T00:38:12.602Z,20.70
2017-07-27T00:40:41.065Z,20.60
2017-07-27T00:43:09.353Z,20.60
2017-07-27T00:45:37.756Z,20.60
2017-07-27T00:48:06.000Z,20.70
2017-07-27T00:50:34.261Z,20.70
2017-07-27T00:53:02.537Z,20.70
2017-07-27T00:55:30.780Z,20.80
2017-07-27T00:57:59.028Z,20.80
2017-07-27T01:00:27.475Z,20.90
2017-07-27T01:02:55.728Z,20.90
2017-07-27T01:05:23.980Z,20.90
2017-07-27T01:07:52.280Z,21.00
2017-07-27T01:10:20.519Z,21.10
2017-07-27T01:12:48.766Z,21.10
2017-07-27T01:15:17.065Z,21.20
2017-07-27T01:17:45.706Z,21.30
2017-07-27T01:20:13.954Z,21.30
2017-07-27T01:22:42.349Z,21.30
2017-07-27T01:25:10.594Z,21.30
2017-07-27T01:27:38.834Z,21.30
2017-07-27T01:30:07.159Z,21.30
2017-07-27T01:32:35.932Z,21.20
2017-07-27T01:35:04.187Z,21.20
2017-07-27T01:37:32.863Z,21.00
2017-07-27T01:40:01.514Z,20.80
2017-07-27T01:42:29.794Z,20.80
2017-07-27T01:44:58.088Z,20.70
2017-07-27T01:47:26.325Z,20.60
2017-07-27T01:49:54.580Z,20.50
2017-07-27T01:52:22.969Z,20.30
2017-07-27T01:54:51.226Z,20.00
2017-07-27T01:57:19.570Z,19.80
2017-07-27T01:59:47.852Z,19.80
2017-07-27T02:02:16.508Z,19.90
2017-07-27T02:04:44.771Z,19.90
2017-07-27T02:07:13.231Z,19.90
2017-07-27T02:09:41.481Z,19.90
2017-07-27T02:12:10.125Z,20.10
2017-07-27T02:14:38.391Z,20.10
2017-07-27T02:17:06.656Z,20.20
2017-07-27T02:19:34.905Z,20.10
2017-07-27T02:22:03.172Z,20.30
2017-07-27T02:24:31.441Z,20.30
2017-07-27T02:27:00.087Z,20.50
2017-07-27T02:29:28.547Z,20.50
2017-07-27T02:31:56.816Z,20.60
2017-07-27T02:34:25.721Z,20.70
2017-07-27T02:36:54.032Z,20.80
2017-07-27T02:39:22.301Z,20.80
2017-07-27T02:41:50.564Z,20.80
2017-07-27T02:44:19.036Z,20.80
2017-07-27T02:46:47.287Z,20.80
2017-07-27T02:49:15.560Z,20.80
2017-07-27T02:51:43.848Z,20.70
2017-07-27T02:54:12.114Z,20.60
2017-07-27T02:56:40.393Z,20.30
2017-07-27T02:59:08.773Z,20.30
2017-07-27T03:01:37.023Z,20.40
2017-07-27T03:04:05.265Z,20.50
2017-07-27T03:06:33.724Z,20.50
2017-07-27T03:09:02.012Z,20.60
2017-07-27T03:11:30.260Z,20.60
2017-07-27T03:13:58.542Z,20.70
2017-07-27T03:16:26.785Z,20.80
2017-07-27T03:18:55.024Z,20.90
2017-07-27T03:21:23.320Z,20.90
2017-07-27T03:23:51.797Z,20.90
2017-07-27T03:26:20.688Z,20.90
2017-07-27T03:28:48.963Z,20.90
2017-07-27T03:31:17.224Z,21.00
2017-07-27T03:33:45.467Z,21.10
2017-07-27T03:36:13.750Z,21.10
2017-07-27T03:38:42.002Z,21.20
2017-07-27T03:41:10.266Z,21.20
2017-07-27T03:43:39.018Z,21.20
2017-07-27T03:46:07.772Z,21.20
2017-07-27T03:48:37.087Z,21.20
2017-07-27T03:51:06.000Z,21.20
2017-07-27T03:53:34.887Z,21.10
2017-07-27T03:56:03.586Z,21.10
2017-07-27T03:58:31.882Z,21.10
2017-07-27T04:01:00.512Z,21.10
2017-07-27T04:03:28.754Z,21.10
2017-07-27T04:05:57.691Z,21.20
2017-07-27T04:08:25.951Z,21.20
2017-07-27T04:10:54.272Z,21.10
2017-07-27T04:13:22.569Z,21.10
2017-07-27T04:15:51.048Z,21.00
2017-07-27T04:18:19.303Z,20.70
2017-07-27T04:20:47.591Z,20.60
2017-07-27T04:23:16.226Z,20.70
2017-07-27T04:25:44.493Z,20.70
2017-07-27T04:28:12.765Z,20.80
2017-07-27T04:30:41.007Z,20.80
2017-07-27T04:33:09.253Z,20.90
2017-07-27T04:35:37.528Z,20.80
2017-07-27T04:38:05.777Z,20.90
2017-07-27T04:40:34.026Z,21.00
2017-07-27T04:43:02.516Z,21.10
2017-07-27T04:45:30.776Z,21.10
2017-07-27T04:47:59.408Z,21.20
2017-07-27T04:50:27.880Z,21.20
2017-07-27T04:52:56.141Z,21.00
2017-07-27T04:55:24.385Z,20.80
2017-07-27T04:58:01.483Z,20.50
2017-07-27T05:00:29.954Z,20.60
2017-07-27T05:02:58.206Z,20.70
2017-07-27T05:05:26.509Z,20.80
2017-07-27T05:07:54.778Z,20.90
2017-07-27T05:10:23.026Z,20.80
2017-07-27T05:12:51.454Z,20.60
2017-07-27T05:15:19.924Z,20.40
2017-07-27T05:17:48.194Z,20.40
2017-07-27T05:20:16.689Z,20.40
2017-07-27T05:22:44.945Z,20.40
2017-07-27T05:25:13.201Z,20.60
2017-07-27T05:27:41.828Z,20.70
2017-07-27T05:30:10.082Z,20.70
2017-07-27T05:32:38.710Z,20.60
2017-07-27T05:35:07.003Z,20.60
2017-07-27T05:37:35.244Z,20.50
2017-07-27T05:40:04.167Z,20.50
2017-07-27T05:42:32.852Z,20.40
2017-07-27T05:45:01.327Z,20.40
2017-07-27T05:47:29.592Z,20.50
2017-07-27T05:49:58.281Z,20.50
2017-07-27T05:52:26.552Z,20.70
2017-07-27T05:54:54.819Z,21.00
2017-07-27T05:57:24.363Z,21.30
2017-07-27T05:59:52.621Z,21.60
2017-07-27T06:02:20.875Z,21.60
2017-07-27T06:04:49.140Z,21.70
2017-07-27T06:07:17.375Z,22.00
2017-07-27T06:09:46.021Z,22.70
2017-07-27T06:12:14.440Z,22.70
2017-07-27T06:14:42.709Z,23.20
2017-07-27T06:17:10.946Z,23.50
2017-07-27T06:19:39.307Z,23.80
2017-07-27T06:22:07.640Z,23.80
2017-07-27T06:24:35.869Z,23.80
2017-07-27T06:27:04.130Z,23.50
2017-07-27T06:29:32.366Z,22.90
2017-07-27T06:32:00.611Z,22.30
2017-07-27T06:34:29.079Z,21.90
2017-07-27T06:36:57.328Z,21.90
2017-07-27T06:39:25.803Z,22.40
2017-07-27T06:41:54.068Z,22.90
2017-07-27T06:44:22.735Z,23.60
2017-07-27T06:46:50.978Z,23.60
2017-07-27T06:49:19.467Z,23.80
2017-07-27T06:51:47.692Z,24.10
2017-07-27T06:54:15.940Z,24.40
2017-07-27T06:56:44.248Z,24.50
2017-07-27T06:59:12.876Z,24.60
2017-07-27T07:01:41.442Z,24.60
2017-07-27T07:04:10.647Z,24.50
2017-07-27T07:06:38.918Z,24.40
2017-07-27T07:09:07.445Z,23.90
2017-07-27T07:11:35.744Z,23.50
2017-07-27T07:14:03.992Z,23.40
2017-07-27T07:16:32.246Z,23.70
2017-07-27T07:19:00.508Z,24.00
2017-07-27T07:21:28.746Z,24.50
2017-07-27T07:23:56.984Z,25.00
2017-07-27T07:26:25.539Z,25.40
2017-07-27T07:28:53.992Z,25.60
2017-07-27T07:31:22.239Z,25.50
2017-07-27T07:33:50.489Z,24.70
2017-07-27T07:36:18.730Z,24.50
2017-07-27T07:38:47.225Z,24.90
2017-07-27T07:41:15.457Z,25.20
2017-07-27T07:43:43.707Z,25.90
2017-07-27T07:46:12.291Z,26.00
2017-07-27T07:48:40.611Z,26.20
2017-07-27T07:51:08.873Z,26.50
2017-07-27T07:53:37.579Z,26.90
2017-07-27T07:56:05.812Z,26.90
2017-07-27T07:58:34.045Z,27.20
2017-07-27T08:01:02.307Z,27.40
2017-07-27T08:03:30.551Z,27.80
2017-07-27T08:05:59.208Z,27.60
2017-07-27T08:08:27.469Z,27.60
2017-07-27T08:10:55.696Z,27.40
2017-07-27T08:13:24.372Z,27.90
2017-07-27T08:15:53.034Z,28.10
2017-07-27T08:18:21.521Z,28.10
2017-07-27T08:20:49.763Z,28.50
2017-07-27T08:23:18.217Z,28.40
2017-07-27T08:25:46.543Z,28.40
2017-07-27T08:28:14.789Z,28.50
2017-07-27T08:30:43.060Z,28.70
2017-07-27T08:33:11.375Z,28.80
2017-07-27T08:35:39.643Z,29.00
2017-07-27T08:38:07.900Z,29.00
2017-07-27T08:40:36.144Z,28.90
2017-07-27T08:43:04.382Z,29.40
2017-07-27T08:45:32.658Z,29.50
2017-07-27T08:48:00.996Z,29.60
2017-07-27T08:50:29.247Z,29.60
2017-07-27T08:52:57.520Z,29.70
2017-07-27T08:55:25.798Z,29.70
2017-07-27T08:57:54.087Z,29.80
2017-07-27T09:00:22.385Z,29.80
2017-07-27T09:02:51.051Z,29.80
2017-07-27T09:05:19.567Z,29.50
2017-07-27T09:07:47.868Z,29.60
2017-07-27T09:10:16.110Z,29.90
2017-07-27T09:12:45.791Z,30.20
2017-07-27T09:15:14.230Z,30.60
2017-07-27T09:17:42.509Z,30.40
2017-07-27T09:20:10.762Z,30.10
2017-07-27T09:22:39.207Z,30.00
2017-07-27T09:25:07.473Z,30.20
2017-07-27T09:27:35.724Z,30.50
2017-07-27T09:30:04.089Z,31.10
2017-07-27T09:32:32.561Z,31.00
2017-07-27T09:35:00.820Z,30.00
2017-07-27T09:37:29.479Z,29.20
2017-07-27T09:39:57.733Z,28.70
2017-07-27T09:42:25.977Z,28.60
2017-07-27T09:44:54.317Z,28.60
2017-07-27T09:47:22.774Z,28.70
2017-07-27T09:49:51.029Z,28.10
2017-07-27T09:52:19.838Z,28.10
2017-07-27T09:54:48.098Z,28.10
2017-07-27T09:57:22.480Z,28.80
2017-07-27T09:59:50.728Z,28.80
2017-07-27T10:02:19.180Z,29.10
2017-07-27T10:04:48.115Z,29.30
2017-07-27T10:07:16.360Z,29.40
2017-07-27T10:09:44.655Z,29.10
2017-07-27T10:12:13.424Z,28.50
2017-07-27T10:14:41.789Z,28.40
2017-07-27T10:17:10.435Z,29.20
2017-07-27T10:19:39.326Z,29.60
2017-07-27T10:22:07.551Z,29.60
2017-07-27T10:24:35.800Z,29.90
2017-07-27T10:27:04.590Z,29.90
2017-07-27T10:29:32.857Z,29.90
2017-07-27T10:32:01.536Z,29.90
2017-07-27T10:34:30.146Z,29.30
2017-07-27T10:36:58.785Z,27.30
2017-07-27T10:39:27.031Z,27.30
2017-07-27T10:41:55.298Z,27.30
2017-07-27T10:44:23.766Z,27.50
2017-07-27T10:46:52.384Z,27.50
2017-07-27T10:49:20.674Z,27.50
2017-07-27T10:51:49.348Z,27.20
2017-07-27T10:54:17.612Z,27.20
2017-07-27T10:56:45.895Z,27.00
2017-07-27T10:59:14.143Z,27.00
2017-07-27T11:01:42.389Z,27.20
2017-07-27T11:04:11.233Z,27.40
2017-07-27T11:06:39.509Z,27.40
2017-07-27T11:09:07.754Z,27.40
2017-07-27T11:11:36.193Z,27.40
2017-07-27T11:14:04.510Z,27.60
2017-07-27T11:16:33.154Z,27.60
2017-07-27T11:19:01.441Z,27.60
2017-07-27T11:21:29.708Z,27.40
2017-07-27T11:23:58.092Z,27.40
2017-07-27T11:26:26.356Z,27.40
2017-07-27T11:28:54.625Z,27.30
2017-07-27T11:31:22.930Z,27.10
2017-07-27T11:33:51.228Z,27.00
2017-07-27T11:36:19.876Z,26.40
2017-07-27T11:38:48.203Z,26.40
2017-07-27T11:41:16.741Z,26.30
2017-07-27T11:43:45.030Z,26.20
2017-07-27T11:46:13.575Z,26.10
2017-07-27T11:48:41.913Z,25.90
2017-07-27T11:51:10.197Z,25.60
2017-07-27T11:53:38.480Z,25.30
2017-07-27T11:56:06.765Z,25.00
2017-07-27T11:58:35.095Z,24.80
2017-07-27T12:01:03.352Z,24.50
2017-07-27T12:03:31.652Z,24.20
2017-07-27T12:06:00.034Z,24.20
2017-07-27T12:08:28.397Z,24.30
2017-07-27T12:10:56.694Z,24.40
2017-07-27T12:13:25.333Z,24.40
2017-07-27T12:15:54.393Z,24.40
2017-07-27T12:18:23.081Z,24.20
2017-07-27T12:20:52.246Z,24.10
2017-07-27T12:23:20.935Z,24.30
2017-07-27T12:25:49.600Z,24.40
2017-07-27T12:28:18.092Z,24.40
2017-07-27T12:30:46.882Z,24.40
2017-07-27T12:33:15.328Z,24.50
2017-07-27T12:35:43.590Z,24.50
2017-07-27T12:38:11.844Z,24.50
2017-07-27T12:40:40.129Z,24.60
2017-07-27T12:43:08.420Z,24.60
2017-07-27T12:45:36.696Z,24.40
2017-07-27T12:48:04.986Z,24.10
2017-07-27T12:50:33.261Z,23.80
2017-07-27T12:53:01.528Z,23.40
2017-07-27T12:55:29.790Z,23.20
2017-07-27T12:57:58.052Z,23.10
2017-07-27T13:00:26.326Z,23.00
2017-07-27T13:02:54.746Z,22.90
2017-07-27T13:05:22.997Z,22.80
2017-07-27T13:07:51.247Z,22.80
2017-07-27T13:10:19.673Z,22.90
2017-07-27T13:12:47.979Z,23.10
2017-07-27T13:15:16.229Z,23.20
2017-07-27T13:17:44.825Z,23.40
2017-07-27T13:20:13.056Z,23.10
2017-07-27T13:22:41.378Z,23.10
2017-07-27T13:25:11.646Z,23.10
2017-07-27T13:27:40.053Z,23.20
2017-07-27T13:30:08.352Z,23.30
2017-07-27T13:32:37.404Z,23.40
2017-07-27T13:35:05.662Z,23.50
2017-07-27T13:37:33.985Z,23.60
2017-07-27T13:40:02.324Z,23.50
2017-07-27T13:42:30.823Z,23.30
2017-07-27T13:44:59.170Z,23.20
2017-07-27T13:47:27.467Z,23.30
2017-07-27T13:49:55.766Z,23.10
2017-07-27T13:52:24.481Z,23.20
2017-07-27T13:54:52.764Z,23.20
2017-07-27T13:57:21.036Z,23.20
2017-07-27T13:59:49.306Z,23.20
2017-07-27T14:02:17.592Z,23.30
2017-07-27T14:04:45.850Z,23.50
2017-07-27T14:07:14.154Z,23.60
2017-07-27T14:09:42.590Z,23.80
2017-07-27T14:12:11.070Z,23.90
2017-07-27T14:14:39.343Z,23.70
2017-07-27T14:17:07.773Z,23.80
2017-07-27T14:19:36.394Z,24.00
2017-07-27T14:22:04.662Z,24.20
2017-07-27T14:24:33.362Z,24.20
2017-07-27T14:27:01.664Z,24.20
2017-07-27T14:29:29.970Z,24.20
2017-07-27T14:31:58.416Z,24.40
2017-07-27T14:34:26.708Z,24.70
2017-07-27T14:36:56.074Z,25.00
2017-07-27T14:39:25.357Z,25.20
2017-07-27T14:41:53.840Z,25.10
2017-07-27T14:44:22.121Z,24.90
2017-07-27T14:46:50.421Z,25.10
2017-07-27T14:49:18.695Z,25.40
2017-07-27T14:51:46.943Z,25.60
2017-07-27T14:54:15.225Z,25.40
2017-07-27T14:56:43.511Z,25.50
2017-07-27T14:59:11.756Z,25.20
2017-07-27T15:01:40.597Z,25.10
2017-07-27T15:04:08.838Z,25.10
2017-07-27T15:06:37.075Z,25.30
2017-07-27T15:09:05.414Z,25.30
2017-07-27T15:11:34.165Z,25.30
2017-07-27T15:14:03.087Z,25.10
2017-07-27T15:16:32.148Z,25.00
2017-07-27T15:19:00.846Z,24.30
2017-07-27T15:21:29.236Z,23.70
2017-07-27T15:23:57.517Z,23.70
2017-07-27T15:26:25.814Z,23.70
2017-07-27T15:28:54.105Z,23.80
2017-07-27T15:31:22.397Z,23.90
2017-07-27T15:33:51.066Z,24.20
2017-07-27T15:36:19.412Z,24.20
2017-07-27T15:38:48.146Z,24.40
2017-07-27T15:41:16.537Z,24.40
2017-07-27T15:43:44.768Z,24.20
2017-07-27T15:46:13.060Z,24.20
2017-07-27T15:48:41.302Z,24.20
2017-07-27T15:51:09.555Z,24.30
2017-07-27T15:53:37.920Z,24.50
2017-07-27T15:56:06.271Z,24.70
2017-07-27T15:58:34.504Z,24.60
2017-07-27T16:01:02.945Z,24.60
2017-07-27T16:03:31.603Z,24.50
2017-07-27T16:05:59.857Z,24.50
2017-07-27T16:08:28.236Z,24.60
2017-07-27T16:10:56.573Z,24.90
2017-07-27T16:13:24.828Z,25.10
2017-07-27T16:15:53.138Z,25.30
2017-07-27T16:18:21.501Z,25.50
2017-07-27T16:20:49.817Z,25.60
2017-07-27T16:23:18.085Z,25.70
2017-07-27T16:25:46.403Z,25.80
2017-07-27T16:28:14.727Z,25.70
2017-07-27T16:30:43.006Z,25.60
2017-07-27T16:33:11.295Z,25.60
2017-07-27T16:35:40.294Z,25.60
2017-07-27T16:38:09.342Z,25.80
2017-07-27T16:40:37.646Z,25.90
2017-07-27T16:43:05.919Z,26.00
2017-07-27T16:45:34.214Z,25.80
2017-07-27T16:48:02.526Z,25.70
2017-07-27T16:50:30.875Z,25.60
2017-07-27T16:52:59.318Z,25.50
2017-07-27T16:55:27.606Z,25.40
2017-07-27T16:57:55.865Z,25.40
2017-07-27T17:00:25.484Z,25.40
2017-07-27T17:02:54.225Z,25.30
2017-07-27T17:05:22.492Z,25.30
2017-07-27T17:07:50.878Z,25.20
2017-07-27T17:10:19.947Z,25.10
2017-07-27T17:12:49.013Z,24.90
2017-07-27T17:15:17.449Z,24.60
2017-07-27T17:17:45.739Z,24.60
2017-07-27T17:20:13.984Z,24.60
2017-07-27T17:22:42.265Z,24.50
2017-07-27T17:25:10.566Z,24.30
2017-07-27T17:27:39.239Z,23.90
2017-07-27T17:30:07.674Z,23.90
2017-07-27T17:32:35.989Z,23.70
2017-07-27T17:35:04.261Z,23.70
2017-07-27T17:37:32.706Z,23.70
2017-07-27T17:40:00.978Z,23.70
2017-07-27T17:42:29.275Z,23.70
2017-07-27T17:44:57.689Z,23.80
2017-07-27T17:47:26.323Z,23.90
2017-07-27T17:49:55.123Z,24.00
2017-07-27T17:52:23.857Z,24.10
2017-07-27T17:54:52.964Z,24.00
2017-07-27T17:57:21.383Z,23.90
2017-07-27T17:59:50.077Z,23.30
2017-07-27T18:02:18.791Z,23.20
2017-07-27T18:04:47.158Z,23.20
2017-07-27T18:07:15.503Z,23.20
2017-07-27T18:09:43.771Z,23.10
2017-07-27T18:12:12.297Z,23.00
2017-07-27T18:14:40.597Z,23.10
2017-07-27T18:17:08.856Z,21.90
2017-07-27T18:19:37.102Z,21.30
2017-07-27T18:22:05.398Z,21.40
2017-07-27T18:24:33.654Z,21.30
2017-07-27T18:27:01.902Z,21.20
2017-07-27T18:29:30.190Z,21.30
2017-07-27T18:31:58.448Z,21.20
2017-07-27T18:34:27.081Z,21.10
2017-07-27T18:36:55.533Z,21.10
2017-07-27T18:39:23.848Z,21.20
2017-07-27T18:41:52.152Z,21.20
2017-07-27T18:44:20.581Z,21.20
2017-07-27T18:46:48.838Z,21.10
2017-07-27T18:49:17.075Z,21.10
2017-07-27T18:51:45.606Z,21.10
2017-07-27T18:54:13.898Z,21.00
2017-07-27T18:56:42.146Z,21.00
2017-07-27T18:59:10.595Z,21.00
2017-07-27T19:01:39.627Z,21.00
2017-07-27T19:04:08.658Z,21.00
2017-07-27T19:06:36.963Z,21.10
2017-07-27T19:09:05.200Z,21.10
2017-07-27T19:11:33.437Z,21.10
2017-07-27T19:14:01.728Z,20.90
2017-07-27T19:16:30.206Z,20.80
2017-07-27T19:18:58.476Z,20.70
2017-07-27T19:21:27.022Z,20.80
2017-07-27T19:23:55.261Z,20.80
2017-07-27T19:26:23.526Z,20.50
2017-07-27T19:28:51.806Z,20.40
2017-07-27T19:31:20.070Z,20.10
2017-07-27T19:33:48.344Z,20.10
2017-07-27T19:36:17.482Z,19.60
2017-07-27T19:38:45.715Z,19.40
2017-07-27T19:41:13.951Z,19.40
2017-07-27T19:43:42.212Z,19.70
2017-07-27T19:46:10.453Z,19.90
2017-07-27T19:48:38.697Z,19.60
2017-07-27T19:51:07.541Z,19.30
2017-07-27T19:53:35.810Z,19.30
2017-07-27T19:56:04.035Z,19.00
2017-07-27T19:58:32.700Z,18.50
2017-07-27T20:01:01.483Z,18.50
2017-07-27T20:03:31.525Z,18.80
2017-07-27T20:06:00.519Z,19.00
2017-07-27T20:08:29.868Z,19.20
2017-07-27T20:10:58.125Z,19.20
2017-07-27T20:13:28.642Z,19.40
2017-07-27T20:15:56.890Z,19.70
2017-07-27T20:18:25.139Z,19.80
2017-07-27T20:20:53.627Z,20.00
2017-07-27T20:23:21.883Z,20.10
2017-07-27T20:25:50.142Z,20.30
2017-07-27T20:28:18.536Z,20.20
2017-07-27T20:30:47.414Z,20.30
2017-07-27T20:33:15.697Z,20.50
2017-07-27T20:35:44.995Z,20.60
2017-07-27T20:38:13.264Z,20.70
2017-07-27T20:40:41.512Z,20.70
2017-07-27T20:43:09.809Z,20.80
2017-07-27T20:45:38.081Z,20.80
2017-07-27T20:48:06.309Z,20.70
2017-07-27T20:50:34.720Z,20.70
2017-07-27T20:53:02.973Z,20.70
2017-07-27T20:55:32.000Z,20.70
2017-07-27T20:58:00.275Z,20.60
2017-07-27T21:00:28.664Z,20.50
2017-07-27T21:02:56.926Z,20.40
2017-07-27T21:05:28.475Z,20.40
2017-07-27T21:07:57.506Z,20.60
2017-07-27T21:10:25.799Z,20.70
2017-07-27T21:12:54.218Z,20.80
2017-07-27T21:15:22.836Z,21.10
2017-07-27T21:17:51.078Z,21.10
2017-07-27T21:20:20.633Z,21.10
2017-07-27T21:22:49.509Z,20.90
2017-07-27T21:25:17.748Z,21.00
2017-07-27T21:27:46.089Z,20.90
2017-07-27T21:30:15.977Z,20.80
2017-07-27T21:32:44.221Z,20.70
2017-07-27T21:35:15.044Z,20.60
2017-07-27T21:37:43.396Z,20.50
2017-07-27T21:40:11.642Z,20.50
2017-07-27T21:42:40.152Z,20.40
2017-07-27T21:45:08.401Z,20.50
2017-07-27T21:47:36.658Z,20.70
2017-07-27T21:50:04.932Z,20.80
2017-07-27T21:52:33.198Z,20.80
2017-07-27T21:55:01.422Z,20.70
2017-07-27T21:57:29.713Z,20.70
2017-07-27T21:59:58.168Z,20.80
2017-07-27T22:02:26.408Z,20.90
2017-07-27T22:04:54.856Z,20.90
2017-07-27T22:07:23.099Z,20.90
2017-07-27T22:09:51.681Z,21.00
2017-07-27T22:12:20.057Z,21.00
2017-07-27T22:14:48.359Z,21.10
2017-07-27T22:17:16.595Z,21.10
2017-07-27T22:19:47.236Z,21.10
2017-07-27T22:22:15.987Z,21.00
2017-07-27T22:24:44.630Z,20.80
2017-07-27T22:27:12.913Z,20.80
2017-07-27T22:29:41.153Z,20.90
2017-07-27T22:32:09.409Z,20.80
2017-07-27T22:34:37.844Z,20.80
2017-07-27T22:37:06.080Z,20.90
2017-07-27T22:39:34.342Z,21.00
2017-07-27T22:42:02.887Z,21.00
2017-07-27T22:44:31.120Z,20.90
2017-07-27T22:46:59.363Z,20.70
2017-07-27T22:49:27.663Z,20.80
2017-07-27T22:51:55.920Z,20.80
2017-07-27T22:54:24.161Z,21.00
2017-07-27T22:56:52.440Z,21.00
2017-07-27T22:59:20.715Z,21.00
2017-07-27T23:01:48.948Z,20.90
2017-07-27T23:04:17.388Z,20.80
2017-07-27T23:06:46.041Z,20.80
2017-07-27T23:09:14.287Z,20.80
2017-07-27T23:11:42.938Z,20.70
2017-07-27T23:14:11.161Z,20.60
2017-07-27T23:16:39.404Z,20.60
2017-07-27T23:19:07.676Z,20.60
2017-07-27T23:21:37.001Z,20.40
2017-07-27T23:24:05.372Z,20.10
2017-07-27T23:26:33.647Z,20.10
2017-07-27T23:29:02.118Z,20.00
2017-07-27T23:31:30.355Z,20.00
2017-07-27T23:33:59.043Z,20.00
2017-07-27T23:36:27.680Z,19.90
2017-07-27T23:38:55.930Z,19.90
2017-07-27T23:41:24.373Z,19.70
2017-07-27T23:43:52.621Z,19.80
2017-07-27T23:46:20.864Z,19.80
2017-07-27T23:48:49.139Z,19.80
2017-07-27T23:51:17.384Z,19.90
2017-07-27T23:53:46.030Z,20.10
2017-07-27T23:56:14.327Z,20.10
2017-07-27T23:58:42.808Z,20.00
